sensor_id;sensor_type;location;lat;lon;timestamp;P1;durP1;ratioP1;P2;durP2;ratioP2
49422;SDS011;36998;51.974;20.150;2022-09-21T00:01:07;16.63;;;8.48;;
49422;SDS011;36998;51.974;20.150;2022-09-21T00:03:36;15.20;;;8.67;;
49422;SDS011;36998;51.974;20.150;2022-09-21T00:06:03;15.60;;;8.02;;
49422;SDS011;36998;51.974;20.150;2022-09-21T00:08:36;15.55;;;7.65;;
49422;SDS011;36998;51.974;20.150;2022-09-21T00:11:02;15.55;;;7.93;;
49422;SDS011;36998;51.974;20.150;2022-09-21T00:13:30;15.80;;;6.75;;
49422;SDS011;36998;51.974;20.150;2022-09-21T00:15:57;13.48;;;6.75;;
49422;SDS011;36998;51.974;20.150;2022-09-21T00:18:23;15.88;;;8.85;;
49422;SDS011;36998;51.974;20.150;2022-09-21T00:20:50;17.08;;;8.63;;
49422;SDS011;36998;51.974;20.150;2022-09-21T00:23:17;17.50;;;8.70;;
49422;SDS011;36998;51.974;20.150;2022-09-21T00:25:46;16.95;;;8.38;;
49422;SDS011;36998;51.974;20.150;2022-09-21T00:28:11;19.98;;;9.38;;
49422;SDS011;36998;51.974;20.150;2022-09-21T00:30:37;17.23;;;9.68;;
49422;SDS011;36998;51.974;20.150;2022-09-21T00:33:03;24.88;;;9.77;;
49422;SDS011;36998;51.974;20.150;2022-09-21T00:35:28;20.90;;;10.20;;
49422;SDS011;36998;51.974;20.150;2022-09-21T00:37:59;17.38;;;8.93;;
49422;SDS011;36998;51.974;20.150;2022-09-21T00:40:25;16.85;;;8.55;;
49422;SDS011;36998;51.974;20.150;2022-09-21T00:42:51;15.68;;;8.27;;
49422;SDS011;36998;51.974;20.150;2022-09-21T00:45:16;17.45;;;9.00;;
49422;SDS011;36998;51.974;20.150;2022-09-21T00:47:49;18.00;;;9.50;;
49422;SDS011;36998;51.974;20.150;2022-09-21T00:50:17;18.98;;;9.75;;
49422;SDS011;36998;51.974;20.150;2022-09-21T00:52:54;17.63;;;9.57;;
49422;SDS011;36998;51.974;20.150;2022-09-21T00:55:23;16.25;;;8.38;;
49422;SDS011;36998;51.974;20.150;2022-09-21T00:57:56;16.77;;;9.32;;
49422;SDS011;36998;51.974;20.150;2022-09-21T01:00:26;15.93;;;8.68;;
49422;SDS011;36998;51.974;20.150;2022-09-21T01:02:52;15.93;;;8.68;;
49422;SDS011;36998;51.974;20.150;2022-09-21T01:05:25;21.08;;;10.05;;
49422;SDS011;36998;51.974;20.150;2022-09-21T01:07:51;21.00;;;9.65;;
49422;SDS011;36998;51.974;20.150;2022-09-21T01:10:18;18.23;;;9.27;;
49422;SDS011;36998;51.974;20.150;2022-09-21T01:13:06;20.00;;;9.88;;
49422;SDS011;36998;51.974;20.150;2022-09-21T01:15:50;19.95;;;10.30;;
49422;SDS011;36998;51.974;20.150;2022-09-21T01:21:19;21.33;;;10.80;;
49422;SDS011;36998;51.974;20.150;2022-09-21T01:24:07;22.25;;;9.88;;
49422;SDS011;36998;51.974;20.150;2022-09-21T01:27:12;20.65;;;10.35;;
49422;SDS011;36998;51.974;20.150;2022-09-21T01:29:56;19.48;;;10.02;;
49422;SDS011;36998;51.974;20.150;2022-09-21T01:33:03;20.85;;;11.38;;
49422;SDS011;36998;51.974;20.150;2022-09-21T01:35:34;16.92;;;9.68;;
49422;SDS011;36998;51.974;20.150;2022-09-21T01:38:24;17.92;;;10.00;;
49422;SDS011;36998;51.974;20.150;2022-09-21T01:40:56;17.98;;;9.27;;
49422;SDS011;36998;51.974;20.150;2022-09-21T01:43:28;17.27;;;10.13;;
49422;SDS011;36998;51.974;20.150;2022-09-21T01:45:58;15.77;;;9.30;;
49422;SDS011;36998;51.974;20.150;2022-09-21T01:48:26;18.40;;;10.30;;
49422;SDS011;36998;51.974;20.150;2022-09-21T01:50:56;14.98;;;8.60;;
49422;SDS011;36998;51.974;20.150;2022-09-21T01:55:57;16.80;;;9.23;;
49422;SDS011;36998;51.974;20.150;2022-09-21T01:59:29;16.50;;;9.02;;
49422;SDS011;36998;51.974;20.150;2022-09-21T02:01:37;18.38;;;10.00;;
49422;SDS011;36998;51.974;20.150;2022-09-21T02:04:09;18.23;;;11.50;;
49422;SDS011;36998;51.974;20.150;2022-09-21T02:06:37;19.63;;;10.15;;
49422;SDS011;36998;51.974;20.150;2022-09-21T02:09:06;19.83;;;10.07;;
49422;SDS011;36998;51.974;20.150;2022-09-21T02:11:32;20.67;;;10.77;;
49422;SDS011;36998;51.974;20.150;2022-09-21T02:13:58;19.73;;;11.27;;
49422;SDS011;36998;51.974;20.150;2022-09-21T02:16:28;18.27;;;10.98;;
49422;SDS011;36998;51.974;20.150;2022-09-21T02:22:38;18.25;;;9.25;;
49422;SDS011;36998;51.974;20.150;2022-09-21T02:25:14;22.70;;;11.07;;
49422;SDS011;36998;51.974;20.150;2022-09-21T02:30:31;17.15;;;10.75;;
49422;SDS011;36998;51.974;20.150;2022-09-21T02:44:08;25.13;;;11.90;;
49422;SDS011;36998;51.974;20.150;2022-09-21T02:46:48;20.02;;;10.65;;
49422;SDS011;36998;51.974;20.150;2022-09-21T02:49:20;18.60;;;10.93;;
49422;SDS011;36998;51.974;20.150;2022-09-21T02:51:51;18.60;;;10.85;;
49422;SDS011;36998;51.974;20.150;2022-09-21T02:54:21;20.08;;;11.43;;
49422;SDS011;36998;51.974;20.150;2022-09-21T02:56:50;19.50;;;11.40;;
49422;SDS011;36998;51.974;20.150;2022-09-21T02:59:18;18.98;;;9.95;;
49422;SDS011;36998;51.974;20.150;2022-09-21T03:01:48;19.02;;;11.27;;
49422;SDS011;36998;51.974;20.150;2022-09-21T03:04:15;19.20;;;11.75;;
49422;SDS011;36998;51.974;20.150;2022-09-21T03:06:41;18.83;;;11.05;;
49422;SDS011;36998;51.974;20.150;2022-09-21T03:09:07;21.15;;;12.38;;
49422;SDS011;36998;51.974;20.150;2022-09-21T03:11:32;23.00;;;11.70;;
49422;SDS011;36998;51.974;20.150;2022-09-21T03:14:00;23.00;;;13.23;;
49422;SDS011;36998;51.974;20.150;2022-09-21T03:16:29;19.90;;;11.90;;
49422;SDS011;36998;51.974;20.150;2022-09-21T03:18:55;20.92;;;12.23;;
49422;SDS011;36998;51.974;20.150;2022-09-21T03:21:22;21.15;;;11.57;;
49422;SDS011;36998;51.974;20.150;2022-09-21T03:23:47;20.05;;;11.48;;
49422;SDS011;36998;51.974;20.150;2022-09-21T03:26:13;22.73;;;12.32;;
49422;SDS011;36998;51.974;20.150;2022-09-21T03:28:38;19.50;;;11.57;;
49422;SDS011;36998;51.974;20.150;2022-09-21T03:31:04;21.17;;;11.95;;
49422;SDS011;36998;51.974;20.150;2022-09-21T03:33:30;19.50;;;11.20;;
49422;SDS011;36998;51.974;20.150;2022-09-21T03:35:56;23.10;;;13.05;;
49422;SDS011;36998;51.974;20.150;2022-09-21T03:38:21;21.63;;;11.43;;
49422;SDS011;36998;51.974;20.150;2022-09-21T03:40:49;20.63;;;12.85;;
49422;SDS011;36998;51.974;20.150;2022-09-21T03:43:14;20.83;;;12.95;;
49422;SDS011;36998;51.974;20.150;2022-09-21T03:45:40;20.48;;;10.93;;
49422;SDS011;36998;51.974;20.150;2022-09-21T03:48:07;21.20;;;12.05;;
49422;SDS011;36998;51.974;20.150;2022-09-21T03:50:33;25.50;;;13.23;;
49422;SDS011;36998;51.974;20.150;2022-09-21T03:52:59;19.90;;;12.10;;
49422;SDS011;36998;51.974;20.150;2022-09-21T03:55:24;21.90;;;12.73;;
49422;SDS011;36998;51.974;20.150;2022-09-21T03:57:50;28.08;;;13.82;;
49422;SDS011;36998;51.974;20.150;2022-09-21T04:00:16;21.38;;;14.02;;
49422;SDS011;36998;51.974;20.150;2022-09-21T04:02:42;29.90;;;12.95;;
49422;SDS011;36998;51.974;20.150;2022-09-21T04:05:08;21.40;;;12.35;;
49422;SDS011;36998;51.974;20.150;2022-09-21T04:07:35;23.10;;;12.70;;
49422;SDS011;36998;51.974;20.150;2022-09-21T04:10:02;22.05;;;12.32;;
49422;SDS011;36998;51.974;20.150;2022-09-21T04:12:30;23.20;;;12.93;;
49422;SDS011;36998;51.974;20.150;2022-09-21T04:14:59;20.92;;;13.57;;
49422;SDS011;36998;51.974;20.150;2022-09-21T04:17:25;26.00;;;14.05;;
49422;SDS011;36998;51.974;20.150;2022-09-21T04:19:51;21.05;;;12.63;;
49422;SDS011;36998;51.974;20.150;2022-09-21T04:22:16;27.02;;;13.65;;
49422;SDS011;36998;51.974;20.150;2022-09-21T04:24:43;20.65;;;12.85;;
49422;SDS011;36998;51.974;20.150;2022-09-21T04:27:09;20.52;;;13.02;;
49422;SDS011;36998;51.974;20.150;2022-09-21T04:29:35;22.02;;;14.05;;
49422;SDS011;36998;51.974;20.150;2022-09-21T04:32:01;26.45;;;14.80;;
49422;SDS011;36998;51.974;20.150;2022-09-21T04:34:27;23.98;;;14.10;;
49422;SDS011;36998;51.974;20.150;2022-09-21T04:36:52;22.48;;;13.50;;
49422;SDS011;36998;51.974;20.150;2022-09-21T04:39:19;21.90;;;12.40;;
49422;SDS011;36998;51.974;20.150;2022-09-21T04:41:44;23.00;;;13.95;;
49422;SDS011;36998;51.974;20.150;2022-09-21T04:44:10;26.10;;;13.98;;
49422;SDS011;36998;51.974;20.150;2022-09-21T04:46:35;20.88;;;13.50;;
49422;SDS011;36998;51.974;20.150;2022-09-21T04:49:01;19.98;;;12.00;;
49422;SDS011;36998;51.974;20.150;2022-09-21T04:51:27;22.92;;;13.25;;
49422;SDS011;36998;51.974;20.150;2022-09-21T04:53:52;26.67;;;12.60;;
49422;SDS011;36998;51.974;20.150;2022-09-21T04:56:18;19.98;;;12.57;;
49422;SDS011;36998;51.974;20.150;2022-09-21T04:58:43;22.52;;;13.30;;
49422;SDS011;36998;51.974;20.150;2022-09-21T05:01:09;23.27;;;12.82;;
49422;SDS011;36998;51.974;20.150;2022-09-21T05:03:35;22.75;;;12.85;;
49422;SDS011;36998;51.974;20.150;2022-09-21T05:06:01;23.17;;;12.85;;
49422;SDS011;36998;51.974;20.150;2022-09-21T05:08:27;19.88;;;11.07;;
49422;SDS011;36998;51.974;20.150;2022-09-21T05:11:12;24.90;;;12.60;;
49422;SDS011;36998;51.974;20.150;2022-09-21T05:13:40;23.88;;;13.05;;
49422;SDS011;36998;51.974;20.150;2022-09-21T05:16:06;21.83;;;11.82;;
49422;SDS011;36998;51.974;20.150;2022-09-21T05:18:32;21.75;;;12.75;;
49422;SDS011;36998;51.974;20.150;2022-09-21T05:20:58;25.55;;;12.38;;
49422;SDS011;36998;51.974;20.150;2022-09-21T05:23:25;21.90;;;13.63;;
49422;SDS011;36998;51.974;20.150;2022-09-21T05:25:53;20.95;;;13.23;;
49422;SDS011;36998;51.974;20.150;2022-09-21T05:28:20;20.30;;;13.05;;
49422;SDS011;36998;51.974;20.150;2022-09-21T05:33:55;19.08;;;11.57;;
49422;SDS011;36998;51.974;20.150;2022-09-21T05:39:16;21.35;;;13.48;;
49422;SDS011;36998;51.974;20.150;2022-09-21T05:41:42;22.77;;;12.18;;
49422;SDS011;36998;51.974;20.150;2022-09-21T05:44:09;20.40;;;12.68;;
49422;SDS011;36998;51.974;20.150;2022-09-21T05:46:49;23.85;;;13.13;;
49422;SDS011;36998;51.974;20.150;2022-09-21T05:49:19;17.98;;;13.15;;
49422;SDS011;36998;51.974;20.150;2022-09-21T05:51:55;21.13;;;12.10;;
49422;SDS011;36998;51.974;20.150;2022-09-21T05:59:56;22.20;;;12.32;;
49422;SDS011;36998;51.974;20.150;2022-09-21T06:05:15;20.67;;;12.32;;
49422;SDS011;36998;51.974;20.150;2022-09-21T06:07:41;18.33;;;11.68;;
49422;SDS011;36998;51.974;20.150;2022-09-21T06:10:07;25.25;;;13.50;;
49422;SDS011;36998;51.974;20.150;2022-09-21T06:12:34;17.92;;;12.50;;
49422;SDS011;36998;51.974;20.150;2022-09-21T06:14:59;19.70;;;12.32;;
49422;SDS011;36998;51.974;20.150;2022-09-21T06:17:25;19.08;;;13.07;;
49422;SDS011;36998;51.974;20.150;2022-09-21T06:19:54;15.65;;;11.70;;
49422;SDS011;36998;51.974;20.150;2022-09-21T06:22:19;16.80;;;11.02;;
49422;SDS011;36998;51.974;20.150;2022-09-21T06:24:45;17.48;;;10.73;;
49422;SDS011;36998;51.974;20.150;2022-09-21T06:27:12;20.65;;;11.48;;
49422;SDS011;36998;51.974;20.150;2022-09-21T06:29:37;14.85;;;10.20;;
49422;SDS011;36998;51.974;20.150;2022-09-21T06:32:03;15.38;;;10.00;;
49422;SDS011;36998;51.974;20.150;2022-09-21T06:34:29;18.45;;;10.57;;
49422;SDS011;36998;51.974;20.150;2022-09-21T06:36:55;11.95;;;9.30;;
49422;SDS011;36998;51.974;20.150;2022-09-21T06:39:20;11.50;;;8.68;;
49422;SDS011;36998;51.974;20.150;2022-09-21T06:41:46;11.73;;;8.32;;
49422;SDS011;36998;51.974;20.150;2022-09-21T06:44:11;14.65;;;8.40;;
49422;SDS011;36998;51.974;20.150;2022-09-21T06:46:37;12.10;;;7.90;;
49422;SDS011;36998;51.974;20.150;2022-09-21T06:49:02;15.77;;;7.80;;
49422;SDS011;36998;51.974;20.150;2022-09-21T06:51:27;15.80;;;8.45;;
49422;SDS011;36998;51.974;20.150;2022-09-21T06:53:53;11.57;;;7.50;;
49422;SDS011;36998;51.974;20.150;2022-09-21T06:56:20;13.57;;;8.18;;
49422;SDS011;36998;51.974;20.150;2022-09-21T06:58:46;11.45;;;7.70;;
49422;SDS011;36998;51.974;20.150;2022-09-21T07:01:12;12.27;;;7.22;;
49422;SDS011;36998;51.974;20.150;2022-09-21T07:03:39;7.30;;;6.55;;
49422;SDS011;36998;51.974;20.150;2022-09-21T07:06:05;8.40;;;6.72;;
49422;SDS011;36998;51.974;20.150;2022-09-21T07:08:32;10.20;;;6.95;;
49422;SDS011;36998;51.974;20.150;2022-09-21T07:10:58;12.65;;;6.95;;
49422;SDS011;36998;51.974;20.150;2022-09-21T07:13:27;8.60;;;5.93;;
49422;SDS011;36998;51.974;20.150;2022-09-21T07:15:53;9.07;;;5.93;;
49422;SDS011;36998;51.974;20.150;2022-09-21T07:18:19;10.23;;;6.22;;
49422;SDS011;36998;51.974;20.150;2022-09-21T07:20:45;11.00;;;7.25;;
49422;SDS011;36998;51.974;20.150;2022-09-21T07:23:14;8.60;;;7.10;;
49422;SDS011;36998;51.974;20.150;2022-09-21T07:25:41;9.98;;;6.55;;
49422;SDS011;36998;51.974;20.150;2022-09-21T07:28:08;10.68;;;6.28;;
49422;SDS011;36998;51.974;20.150;2022-09-21T07:30:35;10.00;;;6.30;;
49422;SDS011;36998;51.974;20.150;2022-09-21T07:33:02;9.15;;;5.97;;
49422;SDS011;36998;51.974;20.150;2022-09-21T07:35:28;7.78;;;5.70;;
49422;SDS011;36998;51.974;20.150;2022-09-21T07:37:56;7.85;;;5.45;;
49422;SDS011;36998;51.974;20.150;2022-09-21T07:40:22;8.10;;;5.13;;
49422;SDS011;36998;51.974;20.150;2022-09-21T07:42:48;8.73;;;5.32;;
49422;SDS011;36998;51.974;20.150;2022-09-21T07:45:13;8.30;;;5.10;;
49422;SDS011;36998;51.974;20.150;2022-09-21T07:47:39;6.43;;;4.80;;
49422;SDS011;36998;51.974;20.150;2022-09-21T07:50:04;6.38;;;4.68;;
49422;SDS011;36998;51.974;20.150;2022-09-21T07:52:30;6.43;;;4.30;;
49422;SDS011;36998;51.974;20.150;2022-09-21T07:54:56;5.18;;;4.13;;
49422;SDS011;36998;51.974;20.150;2022-09-21T07:57:21;9.80;;;5.38;;
49422;SDS011;36998;51.974;20.150;2022-09-21T08:00:05;6.75;;;4.15;;
49422;SDS011;36998;51.974;20.150;2022-09-21T08:02:37;5.85;;;4.43;;
49422;SDS011;36998;51.974;20.150;2022-09-21T08:05:02;5.68;;;3.92;;
49422;SDS011;36998;51.974;20.150;2022-09-21T08:07:28;3.90;;;3.50;;
49422;SDS011;36998;51.974;20.150;2022-09-21T08:09:53;6.82;;;3.88;;
49422;SDS011;36998;51.974;20.150;2022-09-21T08:12:19;6.70;;;3.53;;
49422;SDS011;36998;51.974;20.150;2022-09-21T08:14:45;5.68;;;3.60;;
49422;SDS011;36998;51.974;20.150;2022-09-21T08:17:12;5.75;;;4.07;;
49422;SDS011;36998;51.974;20.150;2022-09-21T08:19:37;5.32;;;3.20;;
49422;SDS011;36998;51.974;20.150;2022-09-21T08:22:03;5.47;;;3.47;;
49422;SDS011;36998;51.974;20.150;2022-09-21T08:24:29;5.15;;;3.20;;
49422;SDS011;36998;51.974;20.150;2022-09-21T08:26:55;7.53;;;3.13;;
49422;SDS011;36998;51.974;20.150;2022-09-21T08:29:21;7.20;;;3.53;;
49422;SDS011;36998;51.974;20.150;2022-09-21T08:31:47;3.55;;;2.90;;
49422;SDS011;36998;51.974;20.150;2022-09-21T08:34:12;3.50;;;3.17;;
49422;SDS011;36998;51.974;20.150;2022-09-21T08:36:38;5.00;;;3.35;;
49422;SDS011;36998;51.974;20.150;2022-09-21T08:39:07;6.90;;;3.20;;
49422;SDS011;36998;51.974;20.150;2022-09-21T08:44:24;4.28;;;2.90;;
49422;SDS011;36998;51.974;20.150;2022-09-21T08:47:04;6.50;;;2.63;;
49422;SDS011;36998;51.974;20.150;2022-09-21T08:49:34;4.13;;;3.15;;
49422;SDS011;36998;51.974;20.150;2022-09-21T08:52:04;5.07;;;3.40;;
49422;SDS011;36998;51.974;20.150;2022-09-21T08:54:37;4.22;;;2.90;;
49422;SDS011;36998;51.974;20.150;2022-09-21T08:57:25;7.22;;;2.92;;
49422;SDS011;36998;51.974;20.150;2022-09-21T08:59:54;4.30;;;2.60;;
49422;SDS011;36998;51.974;20.150;2022-09-21T09:05:20;3.35;;;2.30;;
49422;SDS011;36998;51.974;20.150;2022-09-21T09:08:10;5.63;;;2.92;;
49422;SDS011;36998;51.974;20.150;2022-09-21T09:11:00;6.30;;;2.63;;
49422;SDS011;36998;51.974;20.150;2022-09-21T09:13:48;4.90;;;2.45;;
49422;SDS011;36998;51.974;20.150;2022-09-21T09:16:29;3.80;;;2.92;;
49422;SDS011;36998;51.974;20.150;2022-09-21T09:21:57;2.65;;;1.50;;
49422;SDS011;36998;51.974;20.150;2022-09-21T09:24:31;4.57;;;1.60;;
49422;SDS011;36998;51.974;20.150;2022-09-21T09:27:03;2.83;;;1.60;;
49422;SDS011;36998;51.974;20.150;2022-09-21T09:38:13;3.60;;;1.17;;
49422;SDS011;36998;51.974;20.150;2022-09-21T09:40:55;2.85;;;0.95;;
49422;SDS011;36998;51.974;20.150;2022-09-21T09:47:06;1.67;;;0.93;;
49422;SDS011;36998;51.974;20.150;2022-09-21T09:52:33;2.95;;;0.93;;
49422;SDS011;36998;51.974;20.150;2022-09-21T09:55:00;2.10;;;0.80;;
49422;SDS011;36998;51.974;20.150;2022-09-21T09:57:39;2.17;;;1.17;;
49422;SDS011;36998;51.974;20.150;2022-09-21T10:00:06;2.92;;;1.10;;
49422;SDS011;36998;51.974;20.150;2022-09-21T10:02:54;2.33;;;1.60;;
49422;SDS011;36998;51.974;20.150;2022-09-21T10:05:24;0.98;;;0.85;;
49422;SDS011;36998;51.974;20.150;2022-09-21T10:07:56;1.67;;;0.63;;
49422;SDS011;36998;51.974;20.150;2022-09-21T10:12:53;3.28;;;1.30;;
49422;SDS011;36998;51.974;20.150;2022-09-21T10:15:20;1.50;;;1.10;;
49422;SDS011;36998;51.974;20.150;2022-09-21T10:17:55;2.10;;;1.38;;
49422;SDS011;36998;51.974;20.150;2022-09-21T10:20:26;2.47;;;1.20;;
49422;SDS011;36998;51.974;20.150;2022-09-21T10:22:54;2.35;;;1.08;;
49422;SDS011;36998;51.974;20.150;2022-09-21T10:25:21;3.00;;;1.20;;
49422;SDS011;36998;51.974;20.150;2022-09-21T10:27:47;1.85;;;1.10;;
49422;SDS011;36998;51.974;20.150;2022-09-21T10:30:30;2.03;;;1.27;;
49422;SDS011;36998;51.974;20.150;2022-09-21T10:32:58;2.33;;;0.90;;
49422;SDS011;36998;51.974;20.150;2022-09-21T10:35:24;2.10;;;0.80;;
49422;SDS011;36998;51.974;20.150;2022-09-21T10:40:37;4.20;;;2.53;;
49422;SDS011;36998;51.974;20.150;2022-09-21T10:43:03;2.28;;;0.75;;
49422;SDS011;36998;51.974;20.150;2022-09-21T10:45:30;1.75;;;1.02;;
49422;SDS011;36998;51.974;20.150;2022-09-21T10:50:37;3.08;;;1.20;;
49422;SDS011;36998;51.974;20.150;2022-09-21T10:55:35;2.03;;;1.83;;
49422;SDS011;36998;51.974;20.150;2022-09-21T11:00:33;0.82;;;0.65;;
49422;SDS011;36998;51.974;20.150;2022-09-21T11:03:25;2.20;;;0.80;;
49422;SDS011;36998;51.974;20.150;2022-09-21T11:05:54;1.67;;;0.88;;
49422;SDS011;36998;51.974;20.150;2022-09-21T11:08:26;3.43;;;1.40;;
49422;SDS011;36998;51.974;20.150;2022-09-21T11:11:05;1.65;;;0.75;;
49422;SDS011;36998;51.974;20.150;2022-09-21T11:13:45;0.70;;;0.70;;
49422;SDS011;36998;51.974;20.150;2022-09-21T11:16:20;5.10;;;1.45;;
49422;SDS011;36998;51.974;20.150;2022-09-21T11:21:56;1.03;;;0.70;;
49422;SDS011;36998;51.974;20.150;2022-09-21T11:24:33;2.00;;;1.23;;
49422;SDS011;36998;51.974;20.150;2022-09-21T11:27:33;1.05;;;0.70;;
49422;SDS011;36998;51.974;20.150;2022-09-21T11:30:03;1.85;;;0.68;;
49422;SDS011;36998;51.974;20.150;2022-09-21T11:38:54;0.50;;;0.50;;
49422;SDS011;36998;51.974;20.150;2022-09-21T11:41:17;1.35;;;0.60;;
49422;SDS011;36998;51.974;20.150;2022-09-21T11:44:08;0.65;;;0.60;;
49422;SDS011;36998;51.974;20.150;2022-09-21T11:46:51;1.08;;;0.60;;
49422;SDS011;36998;51.974;20.150;2022-09-21T11:49:23;1.63;;;0.70;;
49422;SDS011;36998;51.974;20.150;2022-09-21T11:52:13;3.42;;;0.90;;
49422;SDS011;36998;51.974;20.150;2022-09-21T11:54:58;2.65;;;1.55;;
49422;SDS011;36998;51.974;20.150;2022-09-21T11:57:53;4.80;;;1.65;;
49422;SDS011;36998;51.974;20.150;2022-09-21T12:01:06;6.65;;;1.70;;
49422;SDS011;36998;51.974;20.150;2022-09-21T12:09:53;5.88;;;1.63;;
49422;SDS011;36998;51.974;20.150;2022-09-21T12:15:32;2.30;;;1.77;;
49422;SDS011;36998;51.974;20.150;2022-09-21T12:18:07;2.03;;;1.30;;
49422;SDS011;36998;51.974;20.150;2022-09-21T12:20:45;1.60;;;1.20;;
49422;SDS011;36998;51.974;20.150;2022-09-21T12:23:16;2.38;;;1.67;;
49422;SDS011;36998;51.974;20.150;2022-09-21T12:25:47;1.30;;;0.82;;
49422;SDS011;36998;51.974;20.150;2022-09-21T12:30:58;1.38;;;0.82;;
49422;SDS011;36998;51.974;20.150;2022-09-21T12:33:33;1.02;;;0.82;;
49422;SDS011;36998;51.974;20.150;2022-09-21T12:36:07;1.85;;;1.00;;
49422;SDS011;36998;51.974;20.150;2022-09-21T12:41:29;1.38;;;0.80;;
49422;SDS011;36998;51.974;20.150;2022-09-21T12:46:48;1.70;;;0.75;;
49422;SDS011;36998;51.974;20.150;2022-09-21T12:49:20;1.02;;;0.65;;
49422;SDS011;36998;51.974;20.150;2022-09-21T12:51:53;1.05;;;0.60;;
49422;SDS011;36998;51.974;20.150;2022-09-21T12:54:26;1.08;;;0.70;;
49422;SDS011;36998;51.974;20.150;2022-09-21T12:57:09;2.15;;;0.85;;
49422;SDS011;36998;51.974;20.150;2022-09-21T13:00:08;0.82;;;0.80;;
49422;SDS011;36998;51.974;20.150;2022-09-21T13:02:37;2.03;;;0.50;;
49422;SDS011;36998;51.974;20.150;2022-09-21T13:08:14;1.20;;;0.80;;
49422;SDS011;36998;51.974;20.150;2022-09-21T13:10:44;2.47;;;0.90;;
49422;SDS011;36998;51.974;20.150;2022-09-21T13:15:52;2.83;;;0.82;;
49422;SDS011;36998;51.974;20.150;2022-09-21T13:18:19;5.25;;;1.30;;
49422;SDS011;36998;51.974;20.150;2022-09-21T13:26:54;6.07;;;4.90;;
49422;SDS011;36998;51.974;20.150;2022-09-21T13:34:29;0.82;;;0.70;;
49422;SDS011;36998;51.974;20.150;2022-09-21T13:44:57;1.20;;;0.60;;
49422;SDS011;36998;51.974;20.150;2022-09-21T13:47:27;2.97;;;0.82;;
49422;SDS011;36998;51.974;20.150;2022-09-21T13:49:56;1.75;;;0.93;;
49422;SDS011;36998;51.974;20.150;2022-09-21T13:52:46;4.18;;;1.67;;
49422;SDS011;36998;51.974;20.150;2022-09-21T13:55:25;5.10;;;1.40;;
49422;SDS011;36998;51.974;20.150;2022-09-21T13:58:18;1.38;;;0.90;;
49422;SDS011;36998;51.974;20.150;2022-09-21T14:05:59;2.40;;;0.60;;
49422;SDS011;36998;51.974;20.150;2022-09-21T14:08:37;2.67;;;0.77;;
49422;SDS011;36998;51.974;20.150;2022-09-21T14:11:14;1.45;;;0.52;;
49422;SDS011;36998;51.974;20.150;2022-09-21T14:13:45;1.10;;;0.40;;
49422;SDS011;36998;51.974;20.150;2022-09-21T14:16:25;0.30;;;0.30;;
49422;SDS011;36998;51.974;20.150;2022-09-21T14:24:47;4.97;;;0.77;;
49422;SDS011;36998;51.974;20.150;2022-09-21T14:27:37;1.58;;;0.75;;
49422;SDS011;36998;51.974;20.150;2022-09-21T14:30:16;1.92;;;1.08;;
49422;SDS011;36998;51.974;20.150;2022-09-21T14:33:01;2.28;;;1.35;;
49422;SDS011;36998;51.974;20.150;2022-09-21T14:35:42;6.25;;;1.73;;
49422;SDS011;36998;51.974;20.150;2022-09-21T14:38:57;1.40;;;1.08;;
49422;SDS011;36998;51.974;20.150;2022-09-21T14:41:06;3.08;;;1.65;;
49422;SDS011;36998;51.974;20.150;2022-09-21T14:43:35;5.07;;;1.90;;
49422;SDS011;36998;51.974;20.150;2022-09-21T14:46:22;4.97;;;2.03;;
49422;SDS011;36998;51.974;20.150;2022-09-21T14:49:09;1.73;;;1.13;;
49422;SDS011;36998;51.974;20.150;2022-09-21T14:51:53;3.05;;;2.08;;
49422;SDS011;36998;51.974;20.150;2022-09-21T14:54:40;2.13;;;0.80;;
49422;SDS011;36998;51.974;20.150;2022-09-21T15:00:17;0.50;;;0.50;;
49422;SDS011;36998;51.974;20.150;2022-09-21T15:05:35;1.20;;;0.90;;
49422;SDS011;36998;51.974;20.150;2022-09-21T15:11:31;3.17;;;1.58;;
49422;SDS011;36998;51.974;20.150;2022-09-21T15:14:12;2.90;;;1.80;;
49422;SDS011;36998;51.974;20.150;2022-09-21T15:16:45;3.97;;;1.65;;
49422;SDS011;36998;51.974;20.150;2022-09-21T15:21:43;3.00;;;2.08;;
49422;SDS011;36998;51.974;20.150;2022-09-21T15:26:50;4.10;;;2.10;;
49422;SDS011;36998;51.974;20.150;2022-09-21T15:29:25;6.05;;;2.33;;
49422;SDS011;36998;51.974;20.150;2022-09-21T15:31:52;4.63;;;2.17;;
49422;SDS011;36998;51.974;20.150;2022-09-21T15:34:18;4.35;;;2.22;;
49422;SDS011;36998;51.974;20.150;2022-09-21T15:36:45;7.15;;;2.97;;
49422;SDS011;36998;51.974;20.150;2022-09-21T15:39:33;6.72;;;3.42;;
49422;SDS011;36998;51.974;20.150;2022-09-21T15:44:33;8.77;;;3.95;;
49422;SDS011;36998;51.974;20.150;2022-09-21T15:47:07;6.78;;;3.53;;
49422;SDS011;36998;51.974;20.150;2022-09-21T15:49:36;7.55;;;3.95;;
49422;SDS011;36998;51.974;20.150;2022-09-21T15:55:18;6.47;;;3.92;;
49422;SDS011;36998;51.974;20.150;2022-09-21T15:57:51;6.60;;;3.13;;
49422;SDS011;36998;51.974;20.150;2022-09-21T16:00:22;11.30;;;4.05;;
49422;SDS011;36998;51.974;20.150;2022-09-21T16:02:54;6.40;;;4.03;;
49422;SDS011;36998;51.974;20.150;2022-09-21T16:05:29;9.63;;;4.30;;
49422;SDS011;36998;51.974;20.150;2022-09-21T16:08:15;10.35;;;4.32;;
49422;SDS011;36998;51.974;20.150;2022-09-21T16:13:19;9.70;;;4.97;;
49422;SDS011;36998;51.974;20.150;2022-09-21T16:16:07;12.52;;;6.22;;
49422;SDS011;36998;51.974;20.150;2022-09-21T16:18:40;13.10;;;6.28;;
49422;SDS011;36998;51.974;20.150;2022-09-21T16:21:27;14.13;;;6.55;;
49422;SDS011;36998;51.974;20.150;2022-09-21T16:23:57;15.00;;;6.55;;
49422;SDS011;36998;51.974;20.150;2022-09-21T16:26:36;17.45;;;7.75;;
49422;SDS011;36998;51.974;20.150;2022-09-21T16:29:17;17.75;;;8.20;;
49422;SDS011;36998;51.974;20.150;2022-09-21T16:31:50;16.92;;;8.32;;
49422;SDS011;36998;51.974;20.150;2022-09-21T16:34:35;13.98;;;6.22;;
49422;SDS011;36998;51.974;20.150;2022-09-21T16:37:01;12.98;;;7.10;;
49422;SDS011;36998;51.974;20.150;2022-09-21T16:39:34;12.63;;;5.88;;
49422;SDS011;36998;51.974;20.150;2022-09-21T16:42:00;14.20;;;7.32;;
49422;SDS011;36998;51.974;20.150;2022-09-21T16:44:28;16.23;;;7.82;;
49422;SDS011;36998;51.974;20.150;2022-09-21T16:46:59;15.90;;;7.88;;
49422;SDS011;36998;51.974;20.150;2022-09-21T16:49:27;14.23;;;6.57;;
49422;SDS011;36998;51.974;20.150;2022-09-21T16:51:57;16.27;;;6.82;;
49422;SDS011;36998;51.974;20.150;2022-09-21T16:54:23;19.73;;;7.13;;
49422;SDS011;36998;51.974;20.150;2022-09-21T16:56:56;19.13;;;8.18;;
49422;SDS011;36998;51.974;20.150;2022-09-21T16:59:24;22.00;;;10.45;;
49422;SDS011;36998;51.974;20.150;2022-09-21T17:01:56;13.20;;;7.40;;
49422;SDS011;36998;51.974;20.150;2022-09-21T17:04:24;14.13;;;7.07;;
49422;SDS011;36998;51.974;20.150;2022-09-21T17:06:52;85.18;;;49.17;;
49422;SDS011;36998;51.974;20.150;2022-09-21T17:09:19;12.48;;;6.90;;
49422;SDS011;36998;51.974;20.150;2022-09-21T17:11:47;9.90;;;4.80;;
49422;SDS011;36998;51.974;20.150;2022-09-21T17:14:15;7.50;;;4.30;;
49422;SDS011;36998;51.974;20.150;2022-09-21T17:16:47;5.07;;;2.78;;
49422;SDS011;36998;51.974;20.150;2022-09-21T17:19:15;6.05;;;2.97;;
49422;SDS011;36998;51.974;20.150;2022-09-21T17:21:41;6.97;;;2.78;;
49422;SDS011;36998;51.974;20.150;2022-09-21T17:24:07;8.18;;;3.45;;
49422;SDS011;36998;51.974;20.150;2022-09-21T17:26:33;5.45;;;2.85;;